sensor_id;sensor_type;location;lat;lon;timestamp;pressure;altitude;pressure_sealevel;temperature;humidity
65666;BME280;52365;47.464;18.976;2023-04-07T00:00:25;99539.94;;;6.30;57.91
65666;BME280;52365;47.464;18.976;2023-04-07T00:01:01;99535.66;;;6.33;57.95
65666;BME280;52365;47.464;18.976;2023-04-07T00:01:37;99539.94;;;6.30;58.10
65666;BME280;52365;47.464;18.976;2023-04-07T00:02:13;99539.84;;;6.21;58.33
65666;BME280;52365;47.464;18.976;2023-04-07T00:02:50;99539.00;;;6.24;58.58
65666;BME280;52365;47.464;18.976;2023-04-07T00:03:26;99538.44;;;6.17;58.85
65666;BME280;52365;47.464;18.976;2023-04-07T00:04:02;99540.47;;;6.51;57.32
65666;BME280;52365;47.464;18.976;2023-04-07T00:04:38;99537.47;;;6.36;55.67
65666;BME280;52365;47.464;18.976;2023-04-07T00:05:14;99538.00;;;6.18;56.14
65666;BME280;52365;47.464;18.976;2023-04-07T00:05:50;99541.00;;;5.95;56.82
65666;BME280;52365;47.464;18.976;2023-04-07T00:06:26;99537.22;;;5.79;57.59
65666;BME280;52365;47.464;18.976;2023-04-07T00:07:03;99542.50;;;6.21;57.04
65666;BME280;52365;47.464;18.976;2023-04-07T00:07:39;99539.78;;;5.83;56.99
65666;BME280;52365;47.464;18.976;2023-04-07T00:08:16;99535.69;;;5.78;57.84
65666;BME280;52365;47.464;18.976;2023-04-07T00:08:52;99531.38;;;5.97;57.15
65666;BME280;52365;47.464;18.976;2023-04-07T00:09:28;99543.25;;;6.22;56.59
65666;BME280;52365;47.464;18.976;2023-04-07T00:10:05;99536.84;;;6.19;56.16
65666;BME280;52365;47.464;18.976;2023-04-07T00:10:41;99541.00;;;5.95;56.86
65666;BME280;52365;47.464;18.976;2023-04-07T00:11:17;99547.12;;;6.21;56.69
65666;BME280;52365;47.464;18.976;2023-04-07T00:11:53;99536.50;;;6.43;56.04
65666;BME280;52365;47.464;18.976;2023-04-07T00:12:29;99536.72;;;6.10;56.00
65666;BME280;52365;47.464;18.976;2023-04-07T00:13:06;99538.44;;;6.17;56.02
65666;BME280;52365;47.464;18.976;2023-04-07T00:13:42;99542.41;;;6.25;55.90
65666;BME280;52365;47.464;18.976;2023-04-07T00:14:18;99543.69;;;6.20;55.98
65666;BME280;52365;47.464;18.976;2023-04-07T00:14:54;99546.56;;;6.39;55.73
65666;BME280;52365;47.464;18.976;2023-04-07T00:15:30;99538.81;;;6.66;55.05
65666;BME280;52365;47.464;18.976;2023-04-07T00:16:06;99542.78;;;6.74;54.72
65666;BME280;52365;47.464;18.976;2023-04-07T00:16:42;99543.81;;;6.29;55.26
65666;BME280;52365;47.464;18.976;2023-04-07T00:17:18;99537.66;;;5.91;56.74
65666;BME280;52365;47.464;18.976;2023-04-07T00:17:54;99542.06;;;6.36;56.50
65666;BME280;52365;47.464;18.976;2023-04-07T00:18:31;99532.44;;;6.51;55.55
65666;BME280;52365;47.464;18.976;2023-04-07T00:19:07;99534.47;;;6.47;55.70
65666;BME280;52365;47.464;18.976;2023-04-07T00:19:43;99538.00;;;6.44;55.46
65666;BME280;52365;47.464;18.976;2023-04-07T00:20:19;99542.06;;;6.23;56.04
65666;BME280;52365;47.464;18.976;2023-04-07T00:20:55;99534.91;;;6.33;56.41
65666;BME280;52365;47.464;18.976;2023-04-07T00:21:31;99536.66;;;6.74;55.41
65666;BME280;52365;47.464;18.976;2023-04-07T00:22:07;99539.06;;;6.59;55.34
65666;BME280;52365;47.464;18.976;2023-04-07T00:22:43;99538.53;;;6.39;56.59
65666;BME280;52365;47.464;18.976;2023-04-07T00:23:19;99534.19;;;6.19;56.55
65666;BME280;52365;47.464;18.976;2023-04-07T00:23:56;99537.50;;;6.11;57.08
65666;BME280;52365;47.464;18.976;2023-04-07T00:24:32;99530.91;;;5.86;57.68
65666;BME280;52365;47.464;18.976;2023-04-07T00:25:08;99539.72;;;6.38;57.20
65666;BME280;52365;47.464;18.976;2023-04-07T00:25:46;99532.62;;;6.56;57.01
65666;BME280;52365;47.464;18.976;2023-04-07T00:26:23;99530.03;;;6.66;56.15
65666;BME280;52365;47.464;18.976;2023-04-07T00:27:02;99537.97;;;6.69;55.83
65666;BME280;52365;47.464;18.976;2023-04-07T00:27:38;99524.50;;;6.60;55.71
65666;BME280;52365;47.464;18.976;2023-04-07T00:28:14;99535.13;;;6.38;56.25
65666;BME280;52365;47.464;18.976;2023-04-07T00:28:50;99537.69;;;5.62;57.99
65666;BME280;52365;47.464;18.976;2023-04-07T00:29:26;99533.94;;;6.01;57.78
65666;BME280;52365;47.464;18.976;2023-04-07T00:30:03;99532.25;;;6.07;57.36
65666;BME280;52365;47.464;18.976;2023-04-07T00:30:39;99520.03;;;5.93;57.95
65666;BME280;52365;47.464;18.976;2023-04-07T00:31:15;99525.44;;;5.77;58.03
65666;BME280;52365;47.464;18.976;2023-04-07T00:31:51;99531.34;;;5.85;58.25
65666;BME280;52365;47.464;18.976;2023-04-07T00:32:27;99528.22;;;5.73;58.37
65666;BME280;52365;47.464;18.976;2023-04-07T00:33:03;99531.69;;;5.99;57.70
65666;BME280;52365;47.464;18.976;2023-04-07T00:33:39;99526.53;;;5.92;57.64
65666;BME280;52365;47.464;18.976;2023-04-07T00:34:15;99525.69;;;5.95;57.37
65666;BME280;52365;47.464;18.976;2023-04-07T00:34:54;99523.38;;;5.97;57.30
65666;BME280;52365;47.464;18.976;2023-04-07T00:35:30;99526.50;;;5.67;57.37
65666;BME280;52365;47.464;18.976;2023-04-07T00:36:06;99525.84;;;5.63;58.52
65666;BME280;52365;47.464;18.976;2023-04-07T00:36:42;99524.47;;;5.71;57.42
65666;BME280;52365;47.464;18.976;2023-04-07T00:37:18;99515.28;;;5.85;57.02
65666;BME280;52365;47.464;18.976;2023-04-07T00:37:54;99527.00;;;5.49;57.38
65666;BME280;52365;47.464;18.976;2023-04-07T00:38:30;99522.31;;;5.24;58.89
65666;BME280;52365;47.464;18.976;2023-04-07T00:39:06;99514.53;;;5.29;58.49
65666;BME280;52365;47.464;18.976;2023-04-07T00:39:42;99531.16;;;4.75;59.75
65666;BME280;52365;47.464;18.976;2023-04-07T00:40:18;99521.06;;;4.83;60.53
65666;BME280;52365;47.464;18.976;2023-04-07T00:40:58;99523.16;;;4.75;60.78
65666;BME280;52365;47.464;18.976;2023-04-07T00:41:34;99520.91;;;5.19;60.34
65666;BME280;52365;47.464;18.976;2023-04-07T00:42:11;99529.34;;;5.47;58.64
65666;BME280;52365;47.464;18.976;2023-04-07T00:42:47;99525.22;;;5.29;57.80
65666;BME280;52365;47.464;18.976;2023-04-07T00:43:23;99522.34;;;5.37;57.59
65666;BME280;52365;47.464;18.976;2023-04-07T00:44:00;99515.34;;;5.55;57.09
65666;BME280;52365;47.464;18.976;2023-04-07T00:44:36;99527.69;;;5.78;56.60
65666;BME280;52365;47.464;18.976;2023-04-07T00:45:12;99523.06;;;5.66;56.28
65666;BME280;52365;47.464;18.976;2023-04-07T00:45:49;99520.34;;;5.41;57.69
65666;BME280;52365;47.464;18.976;2023-04-07T00:46:25;99515.69;;;5.28;57.46
65666;BME280;52365;47.464;18.976;2023-04-07T00:47:01;99518.94;;;5.07;57.95
65666;BME280;52365;47.464;18.976;2023-04-07T00:47:37;99515.03;;;4.95;58.70
65666;BME280;52365;47.464;18.976;2023-04-07T00:48:13;99513.06;;;4.67;58.99
65666;BME280;52365;47.464;18.976;2023-04-07T00:48:50;99521.84;;;5.13;58.41
65666;BME280;52365;47.464;18.976;2023-04-07T00:49:26;99520.31;;;4.83;59.12
65666;BME280;52365;47.464;18.976;2023-04-07T00:50:03;99521.56;;;5.23;58.29
65666;BME280;52365;47.464;18.976;2023-04-07T00:50:40;99526.06;;;5.26;57.55
65666;BME280;52365;47.464;18.976;2023-04-07T00:51:19;99521.09;;;5.41;57.32
65666;BME280;52365;47.464;18.976;2023-04-07T00:51:56;99515.31;;;5.43;57.14
65666;BME280;52365;47.464;18.976;2023-04-07T00:52:32;99519.59;;;5.11;59.00
65666;BME280;52365;47.464;18.976;2023-04-07T00:53:09;99520.87;;;4.90;59.60
65666;BME280;52365;47.464;18.976;2023-04-07T00:53:45;99514.13;;;4.86;60.31
65666;BME280;52365;47.464;18.976;2023-04-07T00:54:24;99517.91;;;4.88;61.01
65666;BME280;52365;47.464;18.976;2023-04-07T00:55:00;99512.16;;;5.19;60.24
65666;BME280;52365;47.464;18.976;2023-04-07T00:55:36;99518.72;;;5.43;59.27
65666;BME280;52365;47.464;18.976;2023-04-07T00:56:12;99516.94;;;5.53;58.38
65666;BME280;52365;47.464;18.976;2023-04-07T00:56:48;99513.56;;;5.91;57.58
65666;BME280;52365;47.464;18.976;2023-04-07T00:57:25;99521.75;;;5.16;58.20
65666;BME280;52365;47.464;18.976;2023-04-07T00:58:01;99515.41;;;4.65;60.42
65666;BME280;52365;47.464;18.976;2023-04-07T00:58:37;99517.81;;;4.92;60.59
65666;BME280;52365;47.464;18.976;2023-04-07T00:59:13;99514.25;;;4.49;61.15
65666;BME280;52365;47.464;18.976;2023-04-07T00:59:51;99513.84;;;4.35;62.14
65666;BME280;52365;47.464;18.976;2023-04-07T01:00:27;99512.66;;;4.19;62.97
65666;BME280;52365;47.464;18.976;2023-04-07T01:01:08;99517.16;;;4.55;62.67
65666;BME280;52365;47.464;18.976;2023-04-07T01:02:00;99507.94;;;5.05;61.07
65666;BME280;52365;47.464;18.976;2023-04-07T01:02:51;99509.12;;;4.88;61.48
65666;BME280;52365;47.464;18.976;2023-04-07T01:03:34;99519.28;;;5.51;59.34
65666;BME280;52365;47.464;18.976;2023-04-07T01:06:07;99512.87;;;6.28;56.16
65666;BME280;52365;47.464;18.976;2023-04-07T01:06:47;99505.47;;;6.33;55.81
65666;BME280;52365;47.464;18.976;2023-04-07T01:07:43;99506.84;;;5.32;57.81
65666;BME280;52365;47.464;18.976;2023-04-07T01:09:54;99508.72;;;4.89;61.48
65666;BME280;52365;47.464;18.976;2023-04-07T01:10:38;99502.59;;;5.47;59.60
65666;BME280;52365;47.464;18.976;2023-04-07T01:11:23;99497.97;;;5.76;58.63
65666;BME280;52365;47.464;18.976;2023-04-07T01:12:19;99501.38;;;5.90;57.86
65666;BME280;52365;47.464;18.976;2023-04-07T01:13:53;99496.44;;;5.63;57.42
65666;BME280;52365;47.464;18.976;2023-04-07T01:14:34;99504.16;;;5.73;57.68
65666;BME280;52365;47.464;18.976;2023-04-07T01:15:14;99497.22;;;5.89;57.29
65666;BME280;52365;47.464;18.976;2023-04-07T01:15:51;99500.19;;;5.65;58.11
65666;BME280;52365;47.464;18.976;2023-04-07T01:16:38;99498.28;;;5.91;57.90
65666;BME280;52365;47.464;18.976;2023-04-07T01:17:18;99502.47;;;6.30;56.47
65666;BME280;52365;47.464;18.976;2023-04-07T01:18:05;99499.88;;;6.52;55.24
65666;BME280;52365;47.464;18.976;2023-04-07T01:18:45;99499.97;;;6.62;54.88
65666;BME280;52365;47.464;18.976;2023-04-07T01:20:36;99499.59;;;6.38;55.47
65666;BME280;52365;47.464;18.976;2023-04-07T01:21:14;99504.59;;;6.36;55.67
65666;BME280;52365;47.464;18.976;2023-04-07T01:21:53;99502.25;;;6.38;55.59
65666;BME280;52365;47.464;18.976;2023-04-07T01:22:54;99508.91;;;6.20;55.80
65666;BME280;52365;47.464;18.976;2023-04-07T01:23:51;99506.44;;;6.13;56.35
65666;BME280;52365;47.464;18.976;2023-04-07T01:26:32;99497.56;;;6.16;56.92
65666;BME280;52365;47.464;18.976;2023-04-07T01:29:33;99500.44;;;6.09;56.41
65666;BME280;52365;47.464;18.976;2023-04-07T01:30:11;99496.69;;;6.32;55.53
65666;BME280;52365;47.464;18.976;2023-04-07T01:30:49;99502.72;;;6.23;55.52
65666;BME280;52365;47.464;18.976;2023-04-07T01:31:25;99501.44;;;6.15;54.74
65666;BME280;52365;47.464;18.976;2023-04-07T01:32:04;99490.63;;;6.06;54.81
65666;BME280;52365;47.464;18.976;2023-04-07T01:32:42;99496.63;;;5.97;55.29
65666;BME280;52365;47.464;18.976;2023-04-07T01:33:20;99495.94;;;5.39;56.71
65666;BME280;52365;47.464;18.976;2023-04-07T01:33:58;99500.47;;;5.42;57.44
65666;BME280;52365;47.464;18.976;2023-04-07T01:34:37;99491.88;;;5.76;57.06
65666;BME280;52365;47.464;18.976;2023-04-07T01:35:13;99495.53;;;6.20;55.78
65666;BME280;52365;47.464;18.976;2023-04-07T01:35:50;99492.66;;;6.15;55.33
65666;BME280;52365;47.464;18.976;2023-04-07T01:36:28;99489.50;;;5.78;55.87
65666;BME280;52365;47.464;18.976;2023-04-07T01:37:07;99490.78;;;5.19;58.17
65666;BME280;52365;47.464;18.976;2023-04-07T01:37:44;99494.56;;;5.05;59.43
65666;BME280;52365;47.464;18.976;2023-04-07T01:38:24;99488.72;;;5.52;59.03
65666;BME280;52365;47.464;18.976;2023-04-07T01:39:01;99489.09;;;5.92;57.82
65666;BME280;52365;47.464;18.976;2023-04-07T01:39:37;99489.44;;;6.07;57.31
65666;BME280;52365;47.464;18.976;2023-04-07T01:40:15;99494.34;;;6.21;56.12
65666;BME280;52365;47.464;18.976;2023-04-07T01:40:52;99491.88;;;6.14;55.95
65666;BME280;52365;47.464;18.976;2023-04-07T01:41:29;99490.59;;;6.19;55.60
65666;BME280;52365;47.464;18.976;2023-04-07T01:42:07;99484.63;;;6.15;55.45
65666;BME280;52365;47.464;18.976;2023-04-07T01:42:44;99490.72;;;6.15;55.61
65666;BME280;52365;47.464;18.976;2023-04-07T01:43:22;99490.19;;;6.20;55.85
65666;BME280;52365;47.464;18.976;2023-04-07T01:44:00;99486.12;;;6.16;55.78
65666;BME280;52365;47.464;18.976;2023-04-07T01:44:37;99479.56;;;6.29;55.42
65666;BME280;52365;47.464;18.976;2023-04-07T01:45:15;99489.00;;;6.21;54.96
65666;BME280;52365;47.464;18.976;2023-04-07T01:45:53;99482.75;;;5.73;56.48
65666;BME280;52365;47.464;18.976;2023-04-07T01:46:29;99482.84;;;5.70;57.43
65666;BME280;52365;47.464;18.976;2023-04-07T01:47:05;99482.66;;;5.90;57.32
65666;BME280;52365;47.464;18.976;2023-04-07T01:47:42;99486.62;;;5.85;57.19
65666;BME280;52365;47.464;18.976;2023-04-07T01:48:19;99484.34;;;5.84;57.16
65666;BME280;52365;47.464;18.976;2023-04-07T01:48:56;99481.31;;;5.98;57.15
65666;BME280;52365;47.464;18.976;2023-04-07T01:49:34;99481.06;;;6.05;56.40
65666;BME280;52365;47.464;18.976;2023-04-07T01:50:12;99484.72;;;5.98;56.10
65666;BME280;52365;47.464;18.976;2023-04-07T01:50:49;99486.88;;;6.03;56.11
65666;BME280;52365;47.464;18.976;2023-04-07T01:51:27;99491.47;;;6.28;56.06
65666;BME280;52365;47.464;18.976;2023-04-07T01:52:05;99489.94;;;6.40;54.75
65666;BME280;52365;47.464;18.976;2023-04-07T01:52:42;99489.22;;;6.01;55.66
65666;BME280;52365;47.464;18.976;2023-04-07T01:53:18;99484.09;;;6.07;56.06
65666;BME280;52365;47.464;18.976;2023-04-07T01:53:55;99484.84;;;6.08;56.12
65666;BME280;52365;47.464;18.976;2023-04-07T01:54:32;99481.91;;;5.89;56.34
65666;BME280;52365;47.464;18.976;2023-04-07T01:55:10;99486.41;;;6.30;55.59
65666;BME280;52365;47.464;18.976;2023-04-07T01:55:46;99483.72;;;6.43;54.63
65666;BME280;52365;47.464;18.976;2023-04-07T01:56:22;99480.13;;;6.24;54.77
65666;BME280;52365;47.464;18.976;2023-04-07T01:56:58;99485.03;;;6.26;54.89
65666;BME280;52365;47.464;18.976;2023-04-07T01:57:34;99482.22;;;5.91;55.60
65666;BME280;52365;47.464;18.976;2023-04-07T01:58:10;99485.31;;;5.64;57.14
65666;BME280;52365;47.464;18.976;2023-04-07T01:58:47;99485.00;;;5.62;57.33
65666;BME280;52365;47.464;18.976;2023-04-07T01:59:24;99483.78;;;5.38;57.75
65666;BME280;52365;47.464;18.976;2023-04-07T02:00:00;99482.56;;;5.80;57.62
65666;BME280;52365;47.464;18.976;2023-04-07T02:00:36;99486.22;;;6.12;56.05
65666;BME280;52365;47.464;18.976;2023-04-07T02:01:13;99483.59;;;5.45;56.49
65666;BME280;52365;47.464;18.976;2023-04-07T02:01:49;99478.56;;;5.05;58.35
65666;BME280;52365;47.464;18.976;2023-04-07T02:02:26;99485.09;;;4.88;59.46
65666;BME280;52365;47.464;18.976;2023-04-07T02:03:30;99483.78;;;5.09;59.79
65666;BME280;52365;47.464;18.976;2023-04-07T02:04:57;99480.72;;;5.77;57.69
65666;BME280;52365;47.464;18.976;2023-04-07T02:05:38;99483.16;;;5.46;58.35
65666;BME280;52365;47.464;18.976;2023-04-07T02:06:19;99477.84;;;5.72;57.90
65666;BME280;52365;47.464;18.976;2023-04-07T02:07:00;99481.16;;;5.21;58.78
65666;BME280;52365;47.464;18.976;2023-04-07T02:07:49;99476.81;;;5.27;59.31
65666;BME280;52365;47.464;18.976;2023-04-07T02:08:28;99484.91;;;5.78;57.81
65666;BME280;52365;47.464;18.976;2023-04-07T02:09:09;99490.19;;;5.53;57.88
65666;BME280;52365;47.464;18.976;2023-04-07T02:09:47;99489.78;;;5.13;58.90
65666;BME280;52365;47.464;18.976;2023-04-07T02:10:27;99479.00;;;5.58;58.71
65666;BME280;52365;47.464;18.976;2023-04-07T02:11:04;99481.56;;;5.62;58.33
65666;BME280;52365;47.464;18.976;2023-04-07T02:11:42;99489.50;;;5.78;58.25
65666;BME280;52365;47.464;18.976;2023-04-07T02:12:20;99487.16;;;5.80;57.98
65666;BME280;52365;47.464;18.976;2023-04-07T02:12:57;99484.47;;;5.67;58.40
65666;BME280;52365;47.464;18.976;2023-04-07T02:13:36;99491.69;;;5.41;59.68
65666;BME280;52365;47.464;18.976;2023-04-07T02:14:13;99487.81;;;5.29;59.54
65666;BME280;52365;47.464;18.976;2023-04-07T02:14:49;99487.41;;;5.02;60.82
65666;BME280;52365;47.464;18.976;2023-04-07T02:15:26;99485.00;;;5.20;60.61
65666;BME280;52365;47.464;18.976;2023-04-07T02:16:05;99480.38;;;5.50;60.16
65666;BME280;52365;47.464;18.976;2023-04-07T02:16:41;99487.22;;;5.51;59.93
65666;BME280;52365;47.464;18.976;2023-04-07T02:17:18;99481.16;;;5.21;60.93
65666;BME280;52365;47.464;18.976;2023-04-07T02:17:56;99476.06;;;4.98;61.36
65666;BME280;52365;47.464;18.976;2023-04-07T02:18:33;99492.97;;;5.08;62.20
65666;BME280;52365;47.464;18.976;2023-04-07T02:19:09;99487.59;;;5.24;61.85
65666;BME280;52365;47.464;18.976;2023-04-07T02:19:46;99480.56;;;5.43;61.38
65666;BME280;52365;47.464;18.976;2023-04-07T02:20:23;99481.47;;;5.65;60.66
65666;BME280;52365;47.464;18.976;2023-04-07T02:21:01;99478.41;;;6.05;59.75
65666;BME280;52365;47.464;18.976;2023-04-07T02:21:39;99480.22;;;6.21;58.96
65666;BME280;52365;47.464;18.976;2023-04-07T02:22:16;99481.94;;;6.15;58.34
65666;BME280;52365;47.464;18.976;2023-04-07T02:22:52;99488.44;;;5.75;59.75
65666;BME280;52365;47.464;18.976;2023-04-07T02:23:29;99472.59;;;5.81;60.36
65666;BME280;52365;47.464;18.976;2023-04-07T02:24:05;99480.81;;;5.74;60.33
65666;BME280;52365;47.464;18.976;2023-04-07T02:24:42;99484.66;;;5.60;60.33
65666;BME280;52365;47.464;18.976;2023-04-07T02:25:27;99485.13;;;5.29;61.04
65666;BME280;52365;47.464;18.976;2023-04-07T02:26:04;99478.75;;;5.52;60.74
65666;BME280;52365;47.464;18.976;2023-04-07T02:26:41;99486.47;;;5.50;60.78
65666;BME280;52365;47.464;18.976;2023-04-07T02:27:18;99478.84;;;5.36;61.10
65666;BME280;52365;47.464;18.976;2023-04-07T02:27:56;99481.69;;;5.58;60.95
65666;BME280;52365;47.464;18.976;2023-04-07T02:28:32;99475.44;;;5.48;61.00
65666;BME280;52365;47.464;18.976;2023-04-07T02:29:08;99478.25;;;5.45;60.63
65666;BME280;52365;47.464;18.976;2023-04-07T02:29:45;99482.97;;;5.53;60.58
65666;BME280;52365;47.464;18.976;2023-04-07T02:30:21;99483.59;;;5.70;60.51
65666;BME280;52365;47.464;18.976;2023-04-07T02:30:57;99489.44;;;6.20;59.27
65666;BME280;52365;47.464;18.976;2023-04-07T02:31:33;99492.31;;;6.13;58.82
65666;BME280;52365;47.464;18.976;2023-04-07T02:32:10;99485.88;;;5.30;60.10
65666;BME280;52365;47.464;18.976;2023-04-07T02:32:46;99482.66;;;5.22;61.17
65666;BME280;52365;47.464;18.976;2023-04-07T02:33:22;99482.53;;;5.55;60.88
65666;BME280;52365;47.464;18.976;2023-04-07T02:33:58;99488.44;;;5.88;59.87
65666;BME280;52365;47.464;18.976;2023-04-07T02:34:34;99480.13;;;5.99;59.40
65666;BME280;52365;47.464;18.976;2023-04-07T02:35:11;99480.69;;;5.52;59.45
65666;BME280;52365;47.464;18.976;2023-04-07T02:35:47;99491.84;;;5.21;60.96
65666;BME280;52365;47.464;18.976;2023-04-07T02:36:24;99477.13;;;5.29;61.38
65666;BME280;52365;47.464;18.976;2023-04-07T02:37:01;99486.00;;;5.39;61.58
65666;BME280;52365;47.464;18.976;2023-04-07T02:37:37;99479.75;;;5.59;61.08
65666;BME280;52365;47.464;18.976;2023-04-07T02:38:14;99489.87;;;5.93;59.70
65666;BME280;52365;47.464;18.976;2023-04-07T02:38:50;99491.06;;;5.50;60.42
65666;BME280;52365;47.464;18.976;2023-04-07T02:39:26;99485.66;;;5.24;61.59
65666;BME280;52365;47.464;18.976;2023-04-07T02:40:03;99487.69;;;5.62;61.52
65666;BME280;52365;47.464;18.976;2023-04-07T02:40:39;99482.16;;;5.95;60.46
65666;BME280;52365;47.464;18.976;2023-04-07T02:41:15;99472.31;;;6.17;59.41
65666;BME280;52365;47.464;18.976;2023-04-07T02:41:52;99487.06;;;6.09;59.54
65666;BME280;52365;47.464;18.976;2023-04-07T02:42:28;99480.41;;;5.75;59.31
65666;BME280;52365;47.464;18.976;2023-04-07T02:43:04;99479.72;;;5.46;60.31
65666;BME280;52365;47.464;18.976;2023-04-07T02:43:40;99476.00;;;5.56;60.33
65666;BME280;52365;47.464;18.976;2023-04-07T02:44:16;99478.88;;;5.49;60.59
65666;BME280;52365;47.464;18.976;2023-04-07T02:44:52;99482.56;;;5.80;60.02
65666;BME280;52365;47.464;18.976;2023-04-07T02:45:28;99481.22;;;6.01;58.97
65666;BME280;52365;47.464;18.976;2023-04-07T02:46:04;99487.59;;;6.17;58.89
65666;BME280;52365;47.464;18.976;2023-04-07T02:46:40;99476.59;;;6.02;58.87
65666;BME280;52365;47.464;18.976;2023-04-07T02:47:17;99482.00;;;5.73;59.01
65666;BME280;52365;47.464;18.976;2023-04-07T02:47:53;99476.22;;;5.49;60.17
65666;BME280;52365;47.464;18.976;2023-04-07T02:48:29;99479.22;;;5.22;60.78
65666;BME280;52365;47.464;18.976;2023-04-07T02:49:05;99477.41;;;4.90;61.54
65666;BME280;52365;47.464;18.976;2023-04-07T02:49:41;99482.56;;;4.97;62.22
65666;BME280;52365;47.464;18.976;2023-04-07T02:50:17;99481.28;;;5.30;61.30
65666;BME280;52365;47.464;18.976;2023-04-07T02:50:53;99477.16;;;5.00;62.21
65666;BME280;52365;47.464;18.976;2023-04-07T02:51:29;99478.56;;;5.47;61.49
65666;BME280;52365;47.464;18.976;2023-04-07T02:52:06;99486.12;;;5.36;61.36
65666;BME280;52365;47.464;18.976;2023-04-07T02:52:42;99473.81;;;5.38;61.32
65666;BME280;52365;47.464;18.976;2023-04-07T02:53:18;99479.34;;;5.31;61.00
65666;BME280;52365;47.464;18.976;2023-04-07T02:53:54;99476.69;;;5.18;60.71
65666;BME280;52365;47.464;18.976;2023-04-07T02:54:30;99480.13;;;5.32;61.21
65666;BME280;52365;47.464;18.976;2023-04-07T02:55:06;99472.72;;;5.23;60.91
65666;BME280;52365;47.464;18.976;2023-04-07T02:55:44;99473.09;;;5.38;60.92
65666;BME280;52365;47.464;18.976;2023-04-07T02:56:21;99471.41;;;5.56;60.55
65666;BME280;52365;47.464;18.976;2023-04-07T02:56:57;99469.44;;;5.44;60.77
65666;BME280;52365;47.464;18.976;2023-04-07T02:57:33;99474.91;;;5.41;60.59
65666;BME280;52365;47.464;18.976;2023-04-07T02:58:09;99472.81;;;5.19;61.57
65666;BME280;52365;47.464;18.976;2023-04-07T02:58:45;99469.81;;;5.17;62.09
65666;BME280;52365;47.464;18.976;2023-04-07T02:59:21;99476.56;;;5.22;62.04
65666;BME280;52365;47.464;18.976;2023-04-07T02:59:57;99475.84;;;5.34;61.54
65666;BME280;52365;47.464;18.976;2023-04-07T03:00:33;99473.13;;;5.21;61.70
65666;BME280;52365;47.464;18.976;2023-04-07T03:01:09;99476.34;;;5.16;61.66
65666;BME280;52365;47.464;18.976;2023-04-07T03:01:46;99477.06;;;5.17;61.88
65666;BME280;52365;47.464;18.976;2023-04-07T03:02:22;99479.56;;;5.24;61.25
65666;BME280;52365;47.464;18.976;2023-04-07T03:02:58;99473.31;;;5.43;60.85
65666;BME280;52365;47.464;18.976;2023-04-07T03:03:34;99471.38;;;5.44;60.81
65666;BME280;52365;47.464;18.976;2023-04-07T03:04:10;99473.91;;;5.35;60.65
65666;BME280;52365;47.464;18.976;2023-04-07T03:04:46;99480.06;;;5.06;61.21
65666;BME280;52365;47.464;18.976;2023-04-07T03:05:23;99470.28;;;4.70;62.38
65666;BME280;52365;47.464;18.976;2023-04-07T03:05:59;99476.28;;;4.74;62.74
65666;BME280;52365;47.464;18.976;2023-04-07T03:06:35;99474.44;;;4.88;62.35
65666;BME280;52365;47.464;18.976;2023-04-07T03:07:11;99475.44;;;4.77;62.85
65666;BME280;52365;47.464;18.976;2023-04-07T03:07:47;99477.56;;;5.28;61.88
65666;BME280;52365;47.464;18.976;2023-04-07T03:08:23;99474.00;;;5.18;61.70
65666;BME280;52365;47.464;18.976;2023-04-07T03:08:59;99475.22;;;5.01;61.93
65666;BME280;52365;47.464;18.976;2023-04-07T03:09:35;99471.19;;;4.80;62.62
65666;BME280;52365;47.464;18.976;2023-04-07T03:10:11;99472.91;;;4.87;62.93
65666;BME280;52365;47.464;18.976;2023-04-07T03:10:47;99465.28;;;5.43;61.69
65666;BME280;52365;47.464;18.976;2023-04-07T03:11:23;99462.84;;;5.49;60.81
65666;BME280;52365;47.464;18.976;2023-04-07T03:11:59;99463.69;;;5.46;60.50
65666;BME280;52365;47.464;18.976;2023-04-07T03:12:36;99471.38;;;5.44;60.80
65666;BME280;52365;47.464;18.976;2023-04-07T03:13:13;99471.34;;;5.18;61.00
65666;BME280;52365;47.464;18.976;2023-04-07T03:13:51;99468.97;;;5.20;61.41
65666;BME280;52365;47.464;18.976;2023-04-07T03:14:27;99470.62;;;5.43;61.16
65666;BME280;52365;47.464;18.976;2023-04-07T03:15:03;99466.25;;;5.37;60.83
65666;BME280;52365;47.464;18.976;2023-04-07T03:15:39;99470.09;;;4.77;62.18
65666;BME280;52365;47.464;18.976;2023-04-07T03:16:15;99469.09;;;4.88;62.72
65666;BME280;52365;47.464;18.976;2023-04-07T03:16:51;99478.25;;;4.87;62.91
65666;BME280;52365;47.464;18.976;2023-04-07T03:17:27;99473.53;;;5.07;62.89
65666;BME280;52365;47.464;18.976;2023-04-07T03:18:03;99476.56;;;4.93;62.85
65666;BME280;52365;47.464;18.976;2023-04-07T03:18:39;99475.53;;;5.03;62.73
65666;BME280;52365;47.464;18.976;2023-04-07T03:19:15;99477.41;;;5.19;62.45
65666;BME280;52365;47.464;18.976;2023-04-07T03:19:51;99466.53;;;4.68;62.90
65666;BME280;52365;47.464;18.976;2023-04-07T03:20:27;99479.28;;;4.76;63.43
65666;BME280;52365;47.464;18.976;2023-04-07T03:21:03;99479.66;;;4.91;63.29
65666;BME280;52365;47.464;18.976;2023-04-07T03:21:39;99477.34;;;5.22;62.75
65666;BME280;52365;47.464;18.976;2023-04-07T03:22:16;99479.72;;;5.46;61.84
65666;BME280;52365;47.464;18.976;2023-04-07T03:22:52;99480.44;;;5.34;61.59
65666;BME280;52365;47.464;18.976;2023-04-07T03:23:28;99486.38;;;5.12;62.39
65666;BME280;52365;47.464;18.976;2023-04-07T03:24:08;99477.69;;;4.79;63.26
65666;BME280;52365;47.464;18.976;2023-04-07T03:24:44;99472.25;;;4.83;63.84
65666;BME280;52365;47.464;18.976;2023-04-07T03:25:20;99483.91;;;5.05;63.35
65666;BME280;52365;47.464;18.976;2023-04-07T03:25:56;99483.69;;;5.12;63.01
65666;BME280;52365;47.464;18.976;2023-04-07T03:26:33;99485.31;;;5.10;63.28
65666;BME280;52365;47.464;18.976;2023-04-07T03:27:09;99483.50;;;5.19;62.93
65666;BME280;52365;47.464;18.976;2023-04-07T03:27:45;99479.84;;;5.13;62.69
65666;BME280;52365;47.464;18.976;2023-04-07T03:28:21;99484.16;;;5.23;62.76
65666;BME280;52365;47.464;18.976;2023-04-07T03:28:57;99479.88;;;5.26;63.06